Accueil
METAR-TAF:

METAR-TAF

Aéroports :

Aéroport international d'Adana-Sakirpasa

Adana, Turquie

latitude: 36-59N, longitude: 035-18E, altitude: 20 m

Observation

Le bulletin a été fait il y a 40 minutes, à 14:50 UTC
Vent 6 kt de nord/nord-est
Température 12°C
Humidité 88%
Pression 1011 hPa
Visibilité: 4800 m
Nuages épars à une hauteur de 3000 ft
Nuages fragmentés à une hauteur de 9000 ft
faibles averses de pluie, brume

METAR: LTAF 131450Z 03006KT 4800 -SHRA BR SCT030 BKN090 12/10 Q1011 NOSIG RMK RWY23 05008KT

Heure: 18:30 (15:30 UTC)


TAF: absent

Observations et prévisions météorologiques de plus de 4000 aéroports (messages METAR et TAF).

Les stations disponibles sont représentées par des disques jaunes et rouges sur la carte.

Passer la souris dessus pour voir le nom de la station.

Cliquer dessus pour voir les observations et prévisions météorologiques.

Pour changer de carte: cliquez sur les boutons verts avec une croix noire pour zoomer, sur le bouton vert avec un tiret pour effectuer un zoom arrière, ou sur les flèches vertes pour les cartes adjacentes.


METAR-TAF: